logo
Search for airport 
image banner adimage banner adimage banner ad
image banner ad

SWTO - Paraiso Do Tocantins

Located in Paraiso Do Tocantins, Brazil

ICAO - SWTO, IATA -

Data provided by Airmate  

General information

Coordinates: S10°10'26" W48°55'58"
Elevation is 1158 feet MSL.
Magnetic variation is -21.306636329° East
View others Airports in Tocatins

Operational data

Special qualification required
Current time UTC:
Current local time:
Weather at : SBPJ - Brigadeiro Lysias Rodrigues ( 64 km )
METAR: SBPJ 180000Z 11005KT CAVOK 25/21 Q1014
TAF: TAF SBPJ 172100Z 1800/1824 13006KT 9999 FEW030 TN23/1808Z TX34/1817Z RMK PGU
View NOTAMs / SUP AIP / TFR affecting this airport [VIEW]
Communications frequencies: [VIEW]

Runways:

RWY identifierQFULength (ft)Width (ft)SurfaceLDA (ft)
104134197ASPH
284134197ASPH

Airport contact information

Address: Paraiso Do Tocantins Brazil

Satellite view of SWTO